Time;durP1;ratioP1;P1;durP2;ratioP2;P2;SDS_P1;SDS_P2;PMS_P1;PMS_P2;Temp;Humidity;BMP_temperature;BMP_pressure;BME280_temperature;BME280_humidity;BME280_pressure;Samples;Min_cycle;Max_cycle;Signal;HPM_P1;HPM_P2
2021/03/21 00:02:16;;;;;;;9.77;5.57;;;;;;;4.07;74.79;101014.97;8886648;33;20224;-75
2021/03/21 00:07:19;;;;;;;11.07;6.63;;;;;;;4.27;74.48;101005.22;8912236;33;20245;-74
2021/03/21 00:12:21;;;;;;;8.53;5.13;;;;;;;4.17;74.65;101004.78;8911498;33;20830;-74
2021/03/21 00:17:23;;;;;;;6.33;4.80;;;;;;;3.54;77.38;101007.50;8912662;33;20228;-74
2021/03/21 00:22:26;;;;;;;8.07;5.07;;;;;;;3.79;76.96;101006.47;8864376;33;20236;-74
2021/03/21 00:27:28;;;;;;;9.73;5.97;;;;;;;3.87;76.63;100999.88;8879034;33;20941;-74
2021/03/21 00:32:30;;;;;;;9.20;5.10;;;;;;;3.91;77.06;100982.00;8867325;33;20236;-75
2021/03/21 00:37:34;;;;;;;9.10;5.37;;;;;;;3.93;77.36;100986.31;8895918;33;20252;-75
2021/03/21 00:42:36;;;;;;;10.73;5.80;;;;;;;3.59;78.85;100980.72;8889840;33;20217;-74
2021/03/21 00:47:39;;;;;;;8.93;5.33;;;;;;;3.52;80.09;100960.69;8881318;33;20232;-73
2021/03/21 00:52:42;;;;;;;10.60;5.63;;;;;;;3.80;78.96;100961.19;8881708;33;20274;-74
2021/03/21 00:57:45;;;;;;;7.07;4.60;;;;;;;3.63;80.02;100958.44;8878340;33;20229;-74
2021/03/21 01:02:48;;;;;;;11.73;5.83;;;;;;;3.59;80.15;100936.41;8868027;33;20295;-74
2021/03/21 01:07:52;;;;;;;10.80;7.00;;;;;;;3.85;79.40;100934.44;8892256;33;20718;-73
2021/03/21 01:12:57;;;;;;;7.53;4.83;;;;;;;3.25;81.10;100921.06;8879902;33;20218;-73
2021/03/21 01:17:59;;;;;;;13.27;5.57;;;;;;;3.55;80.74;100902.97;8875054;33;20221;-74
2021/03/21 01:23:02;;;;;;;12.48;6.07;;;;;;;3.44;81.20;100913.19;8872354;33;20229;-74
2021/03/21 01:28:20;;;;;;;11.30;5.23;;;;;;;3.42;81.54;100907.06;8876248;33;20230;-74
2021/03/21 01:33:26;;;;;;;12.13;6.37;;;;;;;3.51;80.52;100909.31;8873642;33;20258;-74
2021/03/21 01:38:29;;;;;;;14.47;7.87;;;;;;;3.61;80.74;100891.19;8878127;33;20237;-74
2021/03/21 01:43:35;;;;;;;11.07;5.57;;;;;;;3.65;80.37;100885.69;8891021;33;20734;-72
2021/03/21 01:48:46;;;;;;;12.47;6.33;;;;;;;3.47;81.57;100868.75;8880227;33;20237;-74
2021/03/21 01:53:53;;;;;;;11.87;6.33;;;;;;;3.62;80.54;100861.91;8866713;33;20233;-74
2021/03/21 01:59:03;;;;;;;11.73;6.28;;;;;;;3.58;80.72;100856.81;8888700;33;20473;-74
2021/03/21 02:04:06;;;;;;;11.03;5.80;;;;;;;3.50;81.00;100841.19;8874913;33;20218;-74
2021/03/21 02:09:21;;;;;;;11.03;5.17;;;;;;;3.35;81.68;100826.81;8879023;33;20648;-75
2021/03/21 02:14:35;;;;;;;7.33;3.70;;;;;;;3.36;81.62;100823.22;8886423;33;20231;-75
2021/03/21 02:20:32;;;;;;;8.23;5.75;;;;;;;3.25;82.12;100805.09;8868033;33;20245;-74
2021/03/21 02:26:03;;;;;;;10.83;5.47;;;;;;;3.37;81.99;100795.72;8813103;33;20647;-74
2021/03/21 02:31:22;;;;;;;11.87;6.43;;;;;;;3.46;82.01;100799.78;8874031;33;20238;-75
2021/03/21 02:36:30;;;;;;;7.00;4.97;;;;;;;3.55;81.77;100795.84;8870098;33;20222;-74
2021/03/21 02:41:38;;;;;;;12.83;6.70;;;;;;;3.81;81.08;100800.81;8848795;33;20895;-74
2021/03/21 02:46:46;;;;;;;11.37;6.77;;;;;;;3.66;81.31;100796.22;8890042;33;20226;-75
2021/03/21 02:51:54;;;;;;;7.77;3.17;;;;;;;3.43;81.80;100794.59;8864659;33;20830;-75
2021/03/21 02:57:03;;;;;;;8.93;5.40;;;;;;;3.39;82.91;100769.97;8897437;33;20222;-75
2021/03/21 03:02:11;;;;;;;8.77;5.30;;;;;;;3.31;82.59;100774.75;8910277;33;21414;-73
2021/03/21 03:07:19;;;;;;;6.40;4.03;;;;;;;3.42;82.91;100761.00;8912837;33;20252;-74
2021/03/21 03:12:28;;;;;;;10.73;6.57;;;;;;;3.69;81.99;100756.22;8912839;33;20226;-75
2021/03/21 03:17:39;;;;;;;6.10;4.13;;;;;;;3.32;83.41;100751.72;8872148;33;20221;-75
2021/03/21 03:22:50;;;;;;;8.03;4.67;;;;;;;3.34;83.00;100749.84;8911858;33;20221;-75
2021/03/21 03:28:09;;;;;;;10.77;5.37;;;;;;;3.60;82.70;100751.34;8911682;33;20228;-75
2021/03/21 03:33:12;;;;;;;11.50;6.33;;;;;;;3.52;83.24;100748.16;8912381;33;20898;-76
2021/03/21 03:38:15;;;;;;;9.80;4.33;;;;;;;3.60;83.05;100733.59;8912202;33;20803;-76
2021/03/21 03:43:30;;;;;;;8.77;5.13;;;;;;;3.46;83.48;100736.03;8910360;33;20221;-76
2021/03/21 03:48:44;;;;;;;12.63;6.97;;;;;;;3.89;82.44;100736.66;8911621;33;20342;-75
2021/03/21 03:54:19;;;;;;;11.13;5.77;;;;;;;3.70;83.06;100729.59;8911803;33;20225;-76
2021/03/21 03:59:57;;;;;;;9.50;4.83;;;;;;;3.82;82.55;100733.44;8871523;33;20745;-75
2021/03/21 04:05:07;;;;;;;10.57;6.00;;;;;;;4.06;81.78;100731.41;8900705;33;20753;-75
2021/03/21 04:10:17;;;;;;;9.43;4.67;;;;;;;3.86;82.31;100715.56;8871876;33;20636;-75
2021/03/21 04:15:24;;;;;;;11.47;5.90;;;;;;;4.06;81.75;100712.81;8879144;33;20260;-74
2021/03/21 04:20:33;;;;;;;10.40;5.23;;;;;;;4.20;81.79;100706.81;8876551;33;20865;-75
2021/03/21 04:25:42;;;;;;;10.07;5.03;;;;;;;4.24;81.22;100695.06;8893866;33;20777;-74
2021/03/21 04:30:50;;;;;;;8.87;5.20;;;;;;;3.94;82.21;100697.44;8863465;33;20233;-75
2021/03/21 04:35:58;;;;;;;8.77;4.37;;;;;;;4.04;81.79;100704.03;8895815;33;20225;-76
2021/03/21 04:41:03;;;;;;;8.15;4.82;;;;;;;4.15;82.04;100704.38;8894595;33;20247;-76
2021/03/21 04:46:11;;;;;;;6.60;4.00;;;;;;;4.12;81.89;100709.84;8895346;33;20307;-76
2021/03/21 04:51:21;;;;;;;7.50;4.47;;;;;;;4.28;81.84;100712.63;8891644;33;20220;-76
2021/03/21 04:56:31;;;;;;;7.35;4.22;;;;;;;4.24;81.69;100711.03;8883061;33;20221;-76
2021/03/21 05:01:37;;;;;;;3.92;3.17;;;;;;;3.89;82.63;100707.44;8885100;33;20296;-76
2021/03/21 05:06:50;;;;;;;9.63;4.03;;;;;;;4.25;81.42;100711.88;8902323;33;20222;-76
2021/03/21 05:11:58;;;;;;;7.77;4.70;;;;;;;4.26;80.92;100687.03;8879053;33;20222;-75
2021/03/21 05:17:15;;;;;;;7.73;4.53;;;;;;;3.97;81.33;100684.00;8872378;33;20734;-75
2021/03/21 05:22:32;;;;;;;9.67;4.80;;;;;;;3.99;81.16;100679.47;8895322;33;20871;-75
2021/03/21 05:27:41;;;;;;;8.82;4.43;;;;;;;4.25;80.22;100666.69;8914468;33;20225;-75
2021/03/21 05:32:44;;;;;;;6.73;2.87;;;;;;;3.98;80.05;100660.94;8889340;33;20221;-74
2021/03/21 05:37:59;;;;;;;6.80;3.57;;;;;;;3.92;80.06;100664.75;8896865;33;20229;-75
2021/03/21 05:43:45;;;;;;;7.97;3.53;;;;;;;4.20;79.30;100666.03;8895241;33;20213;-75
2021/03/21 05:49:47;;;;;;;7.40;3.77;;;;;;;4.30;79.05;100669.97;8857358;33;20230;-75
2021/03/21 05:55:32;;;;;;;7.47;3.73;;;;;;;4.28;77.96;100671.84;8849587;33;20268;-74
2021/03/21 06:00:55;;;;;;;9.57;4.00;;;;;;;4.46;77.61;100670.91;8895046;33;20221;-74
2021/03/21 06:06:52;;;;;;;5.80;3.00;;;;;;;4.34;77.96;100671.56;8913719;33;20352;-74
2021/03/21 06:12:15;;;;;;;7.23;3.53;;;;;;;4.01;79.20;100680.28;8914096;33;20225;-75
2021/03/21 06:18:11;;;;;;;5.13;2.90;;;;;;;3.97;80.18;100685.81;8911942;33;20257;-75
2021/03/21 06:23:45;;;;;;;3.47;2.10;;;;;;;4.03;80.46;100681.06;8856465;33;20217;-75
2021/03/21 06:29:31;;;;;;;5.75;3.25;;;;;;;4.43;80.68;100694.16;8896696;33;20218;-76
2021/03/21 06:34:44;;;;;;;10.23;4.17;;;;;;;4.59;80.29;100687.13;8882547;33;20230;-75
2021/03/21 06:40:21;;;;;;;5.22;3.42;;;;;;;4.88;79.11;100695.38;8856300;33;20347;-75
2021/03/21 06:46:05;;;;;;;6.22;3.42;;;;;;;4.62;78.71;100700.25;8894077;33;20312;-76
2021/03/21 06:51:36;;;;;;;4.93;3.15;;;;;;;4.78;79.08;100698.53;8915844;33;20229;-76
2021/03/21 06:57:09;;;;;;;7.25;3.63;;;;;;;4.77;78.95;100718.13;8857187;33;20230;-74
2021/03/21 07:03:07;;;;;;;8.90;3.83;;;;;;;4.62;79.18;100730.41;8853434;33;21013;-75
2021/03/21 07:09:08;;;;;;;5.93;2.90;;;;;;;4.85;78.70;100739.00;8827509;33;20222;-75
2021/03/21 07:15:15;;;;;;;5.77;3.10;;;;;;;4.97;79.08;100734.84;8780228;33;20361;-75
2021/03/21 07:21:14;;;;;;;7.60;2.78;;;;;;;4.65;79.07;100736.50;8859909;33;20219;-73
2021/03/21 07:26:28;;;;;;;8.90;2.77;;;;;;;4.65;77.63;100737.38;8870255;33;20758;-74
2021/03/21 07:31:50;;;;;;;9.18;3.05;;;;;;;4.76;76.50;100743.00;8852484;33;20242;-74
2021/03/21 07:37:06;;;;;;;12.30;3.87;;;;;;;4.60;74.95;100753.56;8858296;33;20247;-74
2021/03/21 07:42:37;;;;;;;7.28;3.17;;;;;;;4.65;74.38;100760.47;8848995;33;20229;-73
2021/03/21 07:48:09;;;;;;;9.63;2.73;;;;;;;4.72;74.63;100754.75;8846276;33;20731;-73
2021/03/21 07:53:23;;;;;;;16.27;3.10;;;;;;;4.58;72.21;100783.84;8830301;33;20221;-73
2021/03/21 07:58:33;;;;;;;12.67;4.10;;;;;;;4.89;70.16;100769.84;8851993;33;20226;-73
2021/03/21 08:03:59;;;;;;;11.93;3.20;;;;;;;5.19;70.69;100786.09;8857342;33;20699;-73
2021/03/21 08:09:15;;;;;;;12.67;3.77;;;;;;;4.59;68.61;100791.75;8854173;33;20214;-73
2021/03/21 08:14:25;;;;;;;11.52;4.07;;;;;;;5.00;70.11;100787.97;8857575;33;20228;-74
2021/03/21 08:19:32;;;;;;;14.20;3.93;;;;;;;5.08;70.61;100774.28;8857240;33;21452;-73
2021/03/21 08:24:44;;;;;;;14.25;3.75;;;;;;;5.19;72.30;100783.41;8854882;33;20218;-74
2021/03/21 08:29:59;;;;;;;14.00;3.85;;;;;;;5.05;72.08;100781.47;8856319;33;20222;-73
2021/03/21 08:35:17;;;;;;;16.63;5.20;;;;;;;4.83;71.62;100767.53;8854604;33;20226;-73
2021/03/21 08:40:29;;;;;;;17.42;3.80;;;;;;;5.06;72.23;100772.53;8852875;33;20209;-73
2021/03/21 08:45:37;;;;;;;18.73;3.63;;;;;;;5.11;71.23;100761.66;8874119;33;20221;-73
2021/03/21 08:50:44;;;;;;;14.63;4.18;;;;;;;4.71;68.78;100760.13;8915170;33;20249;-73
2021/03/21 08:55:47;;;;;;;18.70;4.50;;;;;;;5.02;69.58;100752.34;8904299;33;20243;-74
2021/03/21 09:00:49;;;;;;;12.80;5.30;;;;;;;5.08;70.06;100752.97;8907761;33;20759;-74
2021/03/21 09:06:34;;;;;;;24.45;8.05;;;;;;;4.76;67.37;100756.31;8910410;33;20229;-74
2021/03/21 09:11:37;;;;;;;18.27;5.97;;;;;;;5.06;69.14;100761.03;8878159;33;20236;-73
2021/03/21 09:16:57;;;;;;;15.77;5.93;;;;;;;5.11;68.76;100777.63;8876559;33;20333;-73
2021/03/21 09:22:02;;;;;;;16.85;5.28;;;;;;;4.80;68.42;100773.84;8911305;33;20233;-74
2021/03/21 09:27:33;;;;;;;24.52;5.22;;;;;;;4.70;67.87;100779.72;8902971;33;20244;-73
2021/03/21 09:32:36;;;;;;;21.77;5.10;;;;;;;5.21;67.23;100788.66;8892852;33;20221;-73
2021/03/21 09:37:41;;;;;;;26.15;5.82;;;;;;;5.24;65.62;100786.72;8916187;33;21624;-74
2021/03/21 09:42:47;;;;;;;24.08;5.85;;;;;;;5.22;65.10;100798.38;8881891;33;20246;-74
2021/03/21 09:47:56;;;;;;;21.80;5.25;;;;;;;5.41;67.09;100814.28;8914196;33;20256;-73
2021/03/21 09:53:35;;;;;;;17.55;4.65;;;;;;;5.26;64.93;100819.44;8914051;33;20221;-73
2021/03/21 09:58:49;;;;;;;23.25;4.72;;;;;;;5.24;64.49;100832.00;8898886;33;20356;-73
2021/03/21 10:03:59;;;;;;;20.98;5.30;;;;;;;5.18;65.08;100836.75;8849632;33;20229;-74
2021/03/21 10:09:10;;;;;;;20.33;4.65;;;;;;;4.91;63.75;100839.88;8883033;33;20230;-74
2021/03/21 10:14:49;;;;;;;22.88;7.03;;;;;;;4.75;63.92;100838.91;8871282;33;21403;-74
2021/03/21 10:19:57;;;;;;;18.20;5.07;;;;;;;5.19;64.84;100842.03;8877712;33;20311;-74
2021/03/21 10:25:01;;;;;;;25.48;5.25;;;;;;;5.32;65.05;100830.72;8882472;33;20228;-75
2021/03/21 10:30:19;;;;;;;21.55;4.55;;;;;;;5.27;64.02;100841.63;8892338;33;20236;-74
2021/03/21 10:35:54;;;;;;;17.85;4.60;;;;;;;5.36;62.54;100840.28;8867393;33;20218;-74
2021/03/21 10:40:57;;;;;;;21.23;5.07;;;;;;;5.67;64.79;100835.03;8877328;33;21463;-74
2021/03/21 10:46:00;;;;;;;17.65;4.72;;;;;;;5.82;64.91;100846.72;8873456;33;20257;-73
2021/03/21 10:51:06;;;;;;;26.05;4.80;;;;;;;5.74;63.00;100832.94;8907491;33;20632;-74
2021/03/21 10:56:17;;;;;;;22.40;5.25;;;;;;;5.90;63.13;100835.63;8895442;33;20217;-74
2021/03/21 11:01:31;;;;;;;22.67;5.97;;;;;;;5.59;63.19;100839.06;8912107;33;20248;-75
2021/03/21 11:06:37;;;;;;;15.63;4.63;;;;;;;5.83;62.47;100853.75;8900478;33;20249;-74
2021/03/21 11:11:41;;;;;;;22.85;5.13;;;;;;;5.89;62.00;100839.22;8912983;33;20253;-74
2021/03/21 11:16:52;;;;;;;14.38;4.90;;;;;;;6.03;61.87;100841.13;8912335;33;20815;-74
2021/03/21 11:22:28;;;;;;;27.25;5.30;;;;;;;6.08;62.06;100831.09;8878018;33;20220;-74
2021/03/21 11:27:33;;;;;;;24.50;5.53;;;;;;;6.39;60.12;100828.44;8911711;33;20252;-74
2021/03/21 11:32:36;;;;;;;31.02;6.25;;;;;;;6.45;61.13;100821.03;8912299;33;20218;-75
2021/03/21 11:37:42;;;;;;;25.38;5.32;;;;;;;6.63;62.85;100820.81;8910991;33;20225;-75
2021/03/21 11:42:48;;;;;;;18.95;4.50;;;;;;;6.58;59.25;100822.03;8897244;33;20263;-75
2021/03/21 11:47:53;;;;;;;26.73;5.78;;;;;;;6.40;58.33;100824.81;8881968;33;20226;-75
2021/03/21 11:52:59;;;;;;;19.88;5.82;;;;;;;6.94;58.12;100816.41;8901867;33;20237;-75
2021/03/21 11:58:07;;;;;;;24.27;5.75;;;;;;;7.14;56.48;100814.38;8884773;33;20321;-75
2021/03/21 12:03:15;;;;;;;18.95;4.85;;;;;;;6.75;55.35;100819.28;8885608;33;20226;-75
2021/03/21 12:08:25;;;;;;;18.98;4.63;;;;;;;6.68;54.45;100825.91;8895685;33;20253;-75
2021/03/21 12:13:38;;;;;;;23.30;6.03;;;;;;;7.02;55.34;100821.28;8898761;33;20224;-75
2021/03/21 12:18:41;;;;;;;20.52;5.25;;;;;;;6.71;55.63;100809.69;8882592;33;20636;-74
2021/03/21 12:23:51;;;;;;;24.98;5.88;;;;;;;7.46;54.74;100807.06;8882562;33;20228;-75
2021/03/21 12:29:01;;;;;;;19.17;5.03;;;;;;;7.63;53.60;100812.25;8909375;33;20224;-74
2021/03/21 12:34:43;;;;;;;17.95;4.55;;;;;;;7.72;51.98;100816.16;8911624;33;20218;-75
2021/03/21 12:39:49;;;;;;;18.73;4.22;;;;;;;7.66;51.96;100817.41;8907734;33;20231;-75
2021/03/21 12:45:08;;;;;;;22.35;5.50;;;;;;;7.60;51.33;100804.41;8885317;33;20638;-74
2021/03/21 12:50:47;;;;;;;20.70;5.80;;;;;;;7.92;51.07;100806.88;8881350;33;20642;-74
2021/03/21 12:55:51;;;;;;;17.85;4.90;;;;;;;7.85;50.33;100809.09;8906788;33;20221;-74
2021/03/21 13:00:54;;;;;;;16.27;4.43;;;;;;;8.11;49.66;100788.69;8913833;33;20318;-74
2021/03/21 13:05:59;;;;;;;18.10;4.70;;;;;;;7.93;50.09;100797.91;8895893;33;20233;-74
2021/03/21 13:11:04;;;;;;;14.35;3.83;;;;;;;8.05;50.50;100805.13;8887698;33;20222;-75
2021/03/21 13:16:07;;;;;;;20.45;4.25;;;;;;;8.10;49.33;100804.84;8894054;33;20230;-74
2021/03/21 13:21:10;;;;;;;23.35;5.07;;;;;;;8.56;47.46;100800.06;8913298;33;20225;-73
2021/03/21 13:26:13;;;;;;;19.60;4.95;;;;;;;8.05;48.55;100794.44;8901710;33;20217;-74
2021/03/21 13:31:15;;;;;;;20.17;4.93;;;;;;;9.47;46.85;100792.09;8914637;33;20214;-74
2021/03/21 13:36:19;;;;;;;19.40;4.82;;;;;;;9.61;45.12;100784.91;8914206;33;20217;-75
2021/03/21 13:41:21;;;;;;;19.58;4.82;;;;;;;9.06;46.99;100785.09;8889427;33;20605;-74
2021/03/21 13:46:23;;;;;;;14.02;4.30;;;;;;;8.86;45.90;100782.03;8888540;33;20228;-74
2021/03/21 13:51:27;;;;;;;26.98;4.40;;;;;;;8.63;47.51;100783.59;8915327;33;20730;-74
2021/03/21 13:56:29;;;;;;;19.17;4.68;;;;;;;7.91;49.22;100784.63;8909101;33;20252;-74
2021/03/21 14:01:32;;;;;;;16.48;5.15;;;;;;;9.06;47.37;100785.09;8914419;33;20221;-74
2021/03/21 14:06:35;;;;;;;15.80;4.15;;;;;;;9.08;45.95;100785.00;8913848;33;20284;-73
2021/03/21 14:11:39;;;;;;;22.70;5.75;;;;;;;9.11;46.06;100802.69;8913997;33;20785;-73
2021/03/21 14:16:41;;;;;;;14.10;4.57;;;;;;;9.35;45.27;100803.69;8913198;33;20225;-74
2021/03/21 14:21:44;;;;;;;19.17;5.18;;;;;;;10.31;42.98;100789.72;8911517;33;20309;-74
2021/03/21 14:26:46;;;;;;;18.20;4.53;;;;;;;10.44;42.60;100785.16;8897912;33;20229;-74
2021/03/21 14:31:48;;;;;;;13.23;3.50;;;;;;;11.24;40.32;100796.16;8915093;33;20230;-74
2021/03/21 14:36:51;;;;;;;16.08;4.28;;;;;;;13.02;37.09;100797.88;8913617;33;20683;-74
2021/03/21 14:41:54;;;;;;;16.10;3.42;;;;;;;11.70;39.01;100802.44;8895976;33;20225;-74
2021/03/21 14:46:56;;;;;;;14.35;3.40;;;;;;;11.95;39.01;100812.09;8889793;33;20229;-73
2021/03/21 14:51:59;;;;;;;11.02;3.67;;;;;;;11.77;38.74;100800.97;8879216;33;20245;-73
2021/03/21 14:57:02;;;;;;;11.82;3.85;;;;;;;10.53;39.92;100806.00;8857106;33;20238;-73
2021/03/21 15:02:05;;;;;;;14.80;4.50;;;;;;;9.57;43.10;100804.84;8852270;33;20218;-74
2021/03/21 15:07:08;;;;;;;15.73;3.85;;;;;;;8.35;45.05;100815.69;8851032;33;20238;-74
2021/03/21 15:12:11;;;;;;;10.07;3.22;;;;;;;8.80;46.33;100804.75;8853579;33;20237;-72
2021/03/21 15:17:14;;;;;;;12.02;3.28;;;;;;;8.59;46.96;100810.59;8854555;33;20222;-73
2021/03/21 15:22:17;;;;;;;17.35;4.05;;;;;;;7.70;48.02;100813.56;8853775;33;20308;-73
2021/03/21 15:27:19;;;;;;;13.75;3.92;;;;;;;7.80;48.27;100813.84;8853959;33;20214;-72
2021/03/21 15:32:21;;;;;;;14.68;4.55;;;;;;;7.80;48.14;100796.97;8864562;33;20264;-72
2021/03/21 15:37:24;;;;;;;15.40;3.80;;;;;;;7.68;47.64;100799.44;8907669;33;20225;-72
2021/03/21 15:42:27;;;;;;;11.65;4.60;;;;;;;8.02;48.62;100796.47;8909507;33;20225;-73
2021/03/21 15:47:29;;;;;;;17.33;5.05;;;;;;;8.05;48.54;100801.59;8900101;33;20234;-73
2021/03/21 15:52:32;;;;;;;12.75;3.08;;;;;;;7.71;48.03;100801.06;8914953;33;20224;-75
2021/03/21 15:57:34;;;;;;;18.92;3.92;;;;;;;7.38;49.37;100782.63;8912591;33;20217;-74
2021/03/21 16:02:36;;;;;;;18.35;4.30;;;;;;;7.81;48.59;100801.34;8912815;33;20232;-75
2021/03/21 16:07:39;;;;;;;15.32;3.00;;;;;;;7.43;47.83;100794.75;8907477;33;20316;-72
2021/03/21 16:12:42;;;;;;;14.15;4.13;;;;;;;7.34;48.38;100805.16;8886672;33;20226;-75
2021/03/21 16:17:45;;;;;;;15.00;4.13;;;;;;;7.09;49.50;100800.41;8880603;33;20226;-75
2021/03/21 16:22:51;;;;;;;13.95;3.08;;;;;;;6.92;49.71;100818.31;8872411;33;20238;-74
2021/03/21 16:27:55;;;;;;;14.05;4.13;;;;;;;6.82;50.14;100817.09;8897344;33;20217;-75
2021/03/21 16:32:57;;;;;;;11.77;4.57;;;;;;;6.42;51.38;100813.19;8905282;33;20225;-75
2021/03/21 16:38:03;;;;;;;20.95;4.30;;;;;;;6.57;51.34;100812.31;8914791;33;20222;-75
2021/03/21 16:43:07;;;;;;;16.40;3.67;;;;;;;6.37;51.90;100800.97;8909230;33;20221;-74
2021/03/21 16:48:11;;;;;;;18.95;4.03;;;;;;;6.64;51.91;100808.34;8912302;33;20245;-75
2021/03/21 16:53:14;;;;;;;14.13;5.00;;;;;;;6.59;52.15;100815.75;8901220;33;20378;-75
2021/03/21 16:58:17;;;;;;;14.43;3.60;;;;;;;6.42;52.69;100818.50;8881291;33;20675;-75
2021/03/21 17:03:20;;;;;;;12.50;4.15;;;;;;;6.19;51.46;100826.00;8886923;33;20210;-75
2021/03/21 17:08:24;;;;;;;17.13;3.78;;;;;;;6.29;51.62;100831.72;8891531;33;20217;-75
2021/03/21 17:13:26;;;;;;;15.10;3.92;;;;;;;6.20;51.86;100821.53;8909049;33;20218;-75
2021/03/21 17:18:29;;;;;;;15.95;3.50;;;;;;;6.12;52.04;100838.84;8906151;33;20222;-75
2021/03/21 17:23:32;;;;;;;14.07;5.13;;;;;;;5.81;52.75;100860.97;8913742;33;20321;-75
2021/03/21 17:28:36;;;;;;;11.48;3.13;;;;;;;5.80;51.84;100851.25;8892001;33;20990;-73
2021/03/21 17:33:39;;;;;;;16.00;3.97;;;;;;;5.42;52.54;100866.59;8874954;33;20230;-75
2021/03/21 17:38:42;;;;;;;15.25;3.53;;;;;;;5.58;53.00;100867.53;8854525;33;20348;-75
2021/03/21 17:43:44;;;;;;;18.35;4.15;;;;;;;5.50;52.67;100865.25;8885267;33;20220;-75
2021/03/21 17:48:47;;;;;;;16.42;3.25;;;;;;;5.57;52.71;100876.47;8910590;33;20230;-74
2021/03/21 17:53:51;;;;;;;9.98;3.28;;;;;;;5.48;53.29;100877.78;8909472;33;20230;-75
2021/03/21 17:58:56;;;;;;;13.20;3.58;;;;;;;5.48;53.83;100884.94;8912954;33;20228;-75
2021/03/21 18:04:00;;;;;;;13.07;3.20;;;;;;;5.47;53.79;100889.41;8888758;33;20218;-75
2021/03/21 18:09:04;;;;;;;14.95;3.75;;;;;;;5.43;54.04;100893.19;8904152;33;20229;-75
2021/03/21 18:14:06;;;;;;;11.95;3.53;;;;;;;5.28;55.06;100899.28;8901387;33;21440;-74
2021/03/21 18:19:08;;;;;;;11.93;4.03;;;;;;;5.16;56.31;100884.78;8916845;33;20221;-75
2021/03/21 18:24:12;;;;;;;11.63;3.40;;;;;;;5.13;56.70;100889.38;8914026;33;20217;-77
2021/03/21 18:29:16;;;;;;;13.13;3.75;;;;;;;5.09;56.40;100899.34;8913191;33;20230;-75
2021/03/21 18:34:18;;;;;;;15.45;4.05;;;;;;;5.14;56.32;100891.13;8912795;33;21823;-75
2021/03/21 18:39:21;;;;;;;17.50;4.07;;;;;;;5.21;56.40;100905.84;8913256;33;20209;-74
2021/03/21 18:44:23;;;;;;;14.38;4.68;;;;;;;4.92;57.35;100908.13;8910658;33;20237;-76
2021/03/21 18:49:25;;;;;;;13.65;3.55;;;;;;;4.89;57.53;100915.44;8913540;33;20232;-76
2021/03/21 18:54:31;;;;;;;15.45;4.28;;;;;;;4.79;57.35;100936.28;8912328;33;20221;-77
2021/03/21 18:59:33;;;;;;;11.88;3.90;;;;;;;4.93;56.70;100930.28;8913363;33;20821;-76
2021/03/21 19:04:35;;;;;;;11.60;3.63;;;;;;;4.90;56.14;100928.66;8912500;33;20249;-75
2021/03/21 19:09:38;;;;;;;13.53;3.33;;;;;;;4.73;55.91;100932.13;8902938;33;20221;-76
2021/03/21 19:14:42;;;;;;;14.50;3.83;;;;;;;4.81;55.73;100943.28;8863775;33;20226;-74
2021/03/21 19:19:44;;;;;;;14.57;4.23;;;;;;;4.79;55.82;100946.94;8890064;33;20632;-75
2021/03/21 19:24:47;;;;;;;13.87;3.33;;;;;;;4.48;55.67;100948.41;8896166;33;20659;-74
2021/03/21 19:29:49;;;;;;;15.23;4.00;;;;;;;4.65;55.70;100942.28;8908981;33;20919;-75
2021/03/21 19:34:51;;;;;;;17.03;3.73;;;;;;;4.70;55.37;100942.06;8885261;33;20283;-74
2021/03/21 19:39:55;;;;;;;15.38;3.95;;;;;;;4.74;55.14;100947.16;8910243;33;20710;-72
2021/03/21 19:44:58;;;;;;;11.52;2.95;;;;;;;4.76;55.47;100947.09;8910033;33;20280;-76
2021/03/21 19:50:00;;;;;;;17.73;3.63;;;;;;;4.30;57.45;100946.56;8864261;33;20320;-74
2021/03/21 19:55:05;;;;;;;14.40;4.32;;;;;;;4.67;57.17;100947.53;8866659;33;20593;-74
2021/03/21 20:00:10;;;;;;;14.50;3.33;;;;;;;4.44;57.03;100945.94;8904136;33;20213;-74
2021/03/21 20:05:16;;;;;;;12.00;3.60;;;;;;;4.47;57.07;100945.78;8853595;33;20230;-76
2021/03/21 20:10:21;;;;;;;13.63;4.13;;;;;;;4.60;57.22;100950.47;8854722;33;20245;-73
2021/03/21 20:15:27;;;;;;;16.27;3.47;;;;;;;4.67;57.61;100947.53;8884762;33;20230;-75
2021/03/21 20:20:30;;;;;;;18.80;3.87;;;;;;;4.70;57.65;100955.38;8867851;33;20268;-75
2021/03/21 20:25:36;;;;;;;11.45;3.55;;;;;;;4.67;57.36;100955.53;8876904;33;20237;-75
2021/03/21 20:30:39;;;;;;;18.83;3.85;;;;;;;4.60;57.50;100963.78;8893061;33;21400;-75
2021/03/21 20:35:42;;;;;;;10.32;2.92;;;;;;;4.65;57.79;100957.38;8893147;33;20289;-75
2021/03/21 20:40:46;;;;;;;17.27;4.63;;;;;;;4.29;58.17;100956.34;8904315;33;20247;-75
2021/03/21 20:45:48;;;;;;;19.33;5.03;;;;;;;4.51;58.17;100958.88;8904586;33;20234;-73
2021/03/21 20:50:51;;;;;;;15.33;3.43;;;;;;;4.36;57.90;100963.13;8864746;33;20279;-76
2021/03/21 20:55:56;;;;;;;15.57;3.78;;;;;;;4.43;57.99;100958.38;8886991;33;20229;-74
2021/03/21 21:00:58;;;;;;;14.63;4.53;;;;;;;4.35;58.00;100949.88;8879394;33;20253;-73
2021/03/21 21:06:01;;;;;;;19.53;4.53;;;;;;;4.28;58.36;100949.31;8886562;33;20221;-74
2021/03/21 21:11:05;;;;;;;13.10;3.63;;;;;;;4.24;58.18;100946.88;8914032;33;20256;-74
2021/03/21 21:16:07;;;;;;;15.18;3.70;;;;;;;4.49;57.56;100936.81;8887932;33;20229;-75
2021/03/21 21:21:12;;;;;;;15.33;3.43;;;;;;;4.55;57.25;100946.28;8915063;33;20321;-75
2021/03/21 21:26:15;;;;;;;10.13;3.35;;;;;;;4.39;57.73;100947.03;8915410;33;20221;-75
2021/03/21 21:31:21;;;;;;;14.27;3.53;;;;;;;4.53;57.79;100946.38;8878427;33;20229;-75
2021/03/21 21:36:24;;;;;;;12.68;3.60;;;;;;;4.57;57.70;100953.28;8916783;33;20224;-73
2021/03/21 21:41:27;;;;;;;7.17;3.13;;;;;;;4.50;57.98;100954.50;8887038;33;20218;-74
2021/03/21 21:46:29;;;;;;;11.80;3.55;;;;;;;4.36;58.52;100955.16;8868139;33;20222;-74
2021/03/21 21:51:32;;;;;;;12.33;3.50;;;;;;;4.40;58.72;100958.53;8854041;33;20221;-74
2021/03/21 21:56:35;;;;;;;10.77;3.30;;;;;;;4.45;59.12;100967.16;8892426;33;20742;-74
2021/03/21 22:01:38;;;;;;;18.57;3.90;;;;;;;4.25;60.10;100960.09;8896960;33;20226;-74
2021/03/21 22:06:40;;;;;;;10.63;3.37;;;;;;;4.30;60.49;100970.50;8880076;33;20226;-74
2021/03/21 22:11:43;;;;;;;20.43;3.70;;;;;;;4.20;60.55;100962.09;8854665;33;20245;-74
2021/03/21 22:16:45;;;;;;;13.60;3.40;;;;;;;4.12;61.10;100970.44;8900170;33;20240;-76
2021/03/21 22:21:48;;;;;;;8.63;3.20;;;;;;;4.31;61.13;100969.59;8901205;33;20225;-74
2021/03/21 22:26:51;;;;;;;15.20;3.20;;;;;;;4.02;61.90;100962.91;8888659;33;20230;-72
2021/03/21 22:31:53;;;;;;;17.50;4.93;;;;;;;4.15;61.71;100956.13;8908466;33;20714;-76
2021/03/21 22:36:57;;;;;;;6.15;3.15;;;;;;;4.21;61.78;100968.28;8886944;33;20832;-74
2021/03/21 22:42:00;;;;;;;11.43;2.90;;;;;;;3.98;62.56;100969.28;8894780;33;20226;-75
2021/03/21 22:47:02;;;;;;;10.35;3.20;;;;;;;3.99;62.91;100971.91;8865523;33;20234;-73
2021/03/21 22:52:06;;;;;;;14.48;2.95;;;;;;;3.81;64.30;100975.34;8899759;33;20363;-73
2021/03/21 22:57:10;;;;;;;11.85;2.90;;;;;;;3.71;64.48;100978.41;8913474;33;21961;-74
2021/03/21 23:02:13;;;;;;;18.87;3.53;;;;;;;3.77;65.27;100979.09;8905431;33;20217;-75
2021/03/21 23:07:15;;;;;;;14.27;3.13;;;;;;;3.89;65.30;100974.09;8909574;33;20267;-74
2021/03/21 23:12:18;;;;;;;16.35;3.83;;;;;;;3.78;65.84;100971.03;8902653;33;20235;-74
2021/03/21 23:17:21;;;;;;;17.60;5.20;;;;;;;3.50;67.11;100971.34;8885271;33;20232;-74
2021/03/21 23:22:23;;;;;;;17.27;3.87;;;;;;;3.47;67.73;100974.16;8872660;33;20221;-74
2021/03/21 23:27:26;;;;;;;10.50;3.72;;;;;;;3.71;66.88;100967.78;8884752;33;20257;-74
2021/03/21 23:32:28;;;;;;;16.97;3.97;;;;;;;3.87;66.45;100980.44;8888290;33;20932;-74
2021/03/21 23:37:30;;;;;;;13.20;3.17;;;;;;;3.43;67.96;100962.78;8870383;33;20217;-74
2021/03/21 23:42:34;;;;;;;13.83;3.13;;;;;;;3.46;67.83;100970.63;8869409;33;22793;-74
2021/03/21 23:47:41;;;;;;;12.83;3.03;;;;;;;3.66;67.46;100969.78;8887073;33;20233;-74
2021/03/21 23:52:44;;;;;;;10.13;2.75;;;;;;;3.32;68.33;100964.16;8899161;33;21029;-74
2021/03/21 23:57:48;;;;;;;11.77;3.37;;;;;;;3.43;67.99;100961.94;8883741;33;20225;-74
